createdAt,value
2019-02-04T00:00:29.870Z,6.22
2019-02-04T00:02:59.173Z,6.50
2019-02-04T00:05:27.805Z,6.58
2019-02-04T00:07:56.489Z,6.80
2019-02-04T00:10:25.110Z,6.87
2019-02-04T00:12:53.745Z,6.73
2019-02-04T00:15:22.382Z,6.93
2019-02-04T00:17:51.137Z,6.89
2019-02-04T00:20:19.830Z,7.23
2019-02-04T00:22:48.471Z,7.61
2019-02-04T00:25:17.114Z,7.70
2019-02-04T00:27:45.684Z,7.61
2019-02-04T00:30:17.537Z,7.66
2019-02-04T00:32:46.177Z,7.74
2019-02-04T00:35:14.814Z,7.62
2019-02-04T00:37:43.447Z,7.59
2019-02-04T00:40:15.271Z,7.57
2019-02-04T00:42:43.902Z,7.50
2019-02-04T00:45:12.627Z,7.23
2019-02-04T00:47:41.268Z,7.17
2019-02-04T00:50:15.434Z,7.13
2019-02-04T00:52:44.050Z,7.26
2019-02-04T00:55:13.282Z,7.21
2019-02-04T00:57:42.264Z,7.22
2019-02-04T01:00:22.636Z,6.91
2019-02-04T01:02:51.508Z,6.71
2019-02-04T01:05:20.844Z,6.50
2019-02-04T01:07:50.529Z,6.60
2019-02-04T01:10:29.756Z,6.49
2019-02-04T01:12:59.550Z,6.47
2019-02-04T01:15:28.411Z,6.61
2019-02-04T01:17:57.234Z,6.55
2019-02-04T01:20:28.056Z,6.48
2019-02-04T01:22:58.134Z,6.37
2019-02-04T01:25:26.889Z,6.48
2019-02-04T01:27:55.541Z,6.40
2019-02-04T01:30:25.281Z,6.36
2019-02-04T01:32:54.450Z,6.46
2019-02-04T01:35:23.080Z,6.28
2019-02-04T01:37:51.807Z,6.36
2019-02-04T01:40:25.500Z,6.34
2019-02-04T01:42:54.987Z,6.20
2019-02-04T01:45:24.713Z,6.08
2019-02-04T01:47:53.396Z,6.32
2019-02-04T01:50:23.351Z,6.13
2019-02-04T01:52:52.333Z,6.23
2019-02-04T01:55:21.094Z,6.19
2019-02-04T01:57:51.983Z,6.12
2019-02-04T02:00:23.561Z,5.91
2019-02-04T02:02:52.132Z,5.71
2019-02-04T02:05:20.874Z,5.85
2019-02-04T02:07:49.492Z,5.72
2019-02-04T02:10:20.590Z,5.63
2019-02-04T02:12:49.325Z,5.40
2019-02-04T02:15:18.072Z,5.67
2019-02-04T02:17:47.254Z,5.54
2019-02-04T02:20:18.555Z,5.26
2019-02-04T02:22:50.024Z,5.25
2019-02-04T02:25:18.690Z,5.42
2019-02-04T02:27:47.344Z,5.06
2019-02-04T02:30:21.908Z,4.94
2019-02-04T02:32:50.603Z,5.24
2019-02-04T02:35:19.238Z,5.32
2019-02-04T02:37:47.925Z,5.17
2019-02-04T02:40:25.166Z,5.31
2019-02-04T02:42:53.836Z,5.23
2019-02-04T02:45:22.486Z,5.33
2019-02-04T02:47:51.215Z,5.18
2019-02-04T02:50:19.953Z,5.39
2019-02-04T02:52:51.636Z,5.36
2019-02-04T02:55:20.612Z,5.54
2019-02-04T02:57:49.243Z,5.53
2019-02-04T03:00:20.321Z,5.54
2019-02-04T03:02:48.967Z,5.45
2019-02-04T03:05:17.897Z,5.55
2019-02-04T03:07:46.574Z,5.33
2019-02-04T03:10:17.963Z,5.13
2019-02-04T03:12:47.023Z,5.39
2019-02-04T03:15:16.061Z,5.48
2019-02-04T03:17:52.138Z,5.31
2019-02-04T03:20:15.373Z,5.39
2019-02-04T03:22:44.013Z,5.29
2019-02-04T03:25:15.425Z,5.35
2019-02-04T03:27:44.359Z,5.41
2019-02-04T03:30:31.175Z,5.41
2019-02-04T03:32:59.938Z,5.49
2019-02-04T03:35:29.989Z,5.53
2019-02-04T03:37:59.058Z,5.48
2019-02-04T03:40:32.230Z,5.39
2019-02-04T03:43:00.894Z,5.32
2019-02-04T03:45:31.949Z,5.29
2019-02-04T03:48:06.326Z,5.25
2019-02-04T03:50:30.986Z,5.27
2019-02-04T03:52:59.636Z,5.33
2019-02-04T03:55:28.283Z,5.24
2019-02-04T03:57:56.959Z,5.36
2019-02-04T04:00:34.930Z,5.35
2019-02-04T04:03:03.635Z,5.21
2019-02-04T04:05:32.369Z,4.99
2019-02-04T04:08:01.047Z,5.12
2019-02-04T04:10:29.698Z,5.28
2019-02-04T04:12:58.243Z,5.15
2019-02-04T04:15:26.878Z,5.09
2019-02-04T04:17:55.538Z,5.04
2019-02-04T04:20:24.196Z,4.98
2019-02-04T04:22:55.615Z,5.18
2019-02-04T04:25:24.301Z,5.00
2019-02-04T04:27:52.931Z,4.69
2019-02-04T04:30:26.920Z,4.62
2019-02-04T04:32:56.183Z,4.79
2019-02-04T04:35:25.027Z,5.01
2019-02-04T04:37:53.824Z,4.83
2019-02-04T04:40:22.786Z,5.04
2019-02-04T04:42:51.412Z,4.85
2019-02-04T04:45:23.009Z,4.97
2019-02-04T04:47:54.652Z,5.19
2019-02-04T04:50:23.335Z,5.10
2019-02-04T04:52:52.161Z,5.05
2019-02-04T04:55:25.283Z,5.06
2019-02-04T04:57:53.923Z,5.05
2019-02-04T05:00:27.972Z,5.08
2019-02-04T05:02:56.753Z,5.27
2019-02-04T05:05:25.401Z,5.29
2019-02-04T05:07:54.284Z,5.30
2019-02-04T05:10:23.316Z,5.37
2019-02-04T05:12:52.023Z,5.39
2019-02-04T05:15:24.156Z,5.43
2019-02-04T05:17:53.139Z,5.46
2019-02-04T05:20:22.170Z,5.44
2019-02-04T05:22:54.846Z,5.35
2019-02-04T05:25:23.524Z,5.25
2019-02-04T05:27:55.917Z,5.21
2019-02-04T05:30:25.857Z,5.16
2019-02-04T05:32:54.544Z,5.17
2019-02-04T05:35:23.313Z,5.17
2019-02-04T05:37:51.956Z,5.22
2019-02-04T05:40:20.653Z,5.26
2019-02-04T05:42:52.423Z,5.28
2019-02-04T05:45:22.024Z,5.30
2019-02-04T05:47:50.667Z,5.35
2019-02-04T05:50:20.505Z,5.36
2019-02-04T05:52:49.924Z,5.36
2019-02-04T05:55:20.240Z,5.40
2019-02-04T05:57:48.870Z,5.28
2019-02-04T06:00:22.065Z,5.36
2019-02-04T06:02:50.677Z,5.34
2019-02-04T06:05:19.610Z,5.25
2019-02-04T06:07:48.328Z,5.28
2019-02-04T06:10:17.445Z,5.51
2019-02-04T06:12:46.115Z,5.75
2019-02-04T06:15:16.275Z,5.80
2019-02-04T06:17:44.977Z,5.84
2019-02-04T06:20:22.305Z,5.93
2019-02-04T06:22:51.672Z,5.89
2019-02-04T06:25:20.389Z,5.83
2019-02-04T06:27:49.521Z,5.85
2019-02-04T06:30:18.973Z,6.21
2019-02-04T06:32:47.951Z,6.38
2019-02-04T06:35:17.523Z,6.69
2019-02-04T06:37:47.132Z,6.92
2019-02-04T06:40:17.159Z,7.07
2019-02-04T06:42:45.996Z,7.26
2019-02-04T06:45:16.502Z,7.29
2019-02-04T06:47:45.291Z,7.44
2019-02-04T06:50:16.442Z,7.67
2019-02-04T06:52:45.480Z,7.90
2019-02-04T06:55:22.603Z,7.90
2019-02-04T06:57:54.067Z,8.24
2019-02-04T07:00:22.921Z,8.67
2019-02-04T07:02:57.413Z,8.92
2019-02-04T07:05:26.299Z,9.13
2019-02-04T07:07:54.857Z,9.56
2019-02-04T07:10:27.773Z,10.16
2019-02-04T07:12:56.828Z,10.82
2019-02-04T07:15:25.618Z,11.45
2019-02-04T07:17:55.373Z,12.24
2019-02-04T07:20:25.696Z,12.96
2019-02-04T07:22:54.547Z,14.51
2019-02-04T07:25:23.861Z,15.36
2019-02-04T07:27:53.197Z,15.97
2019-02-04T07:30:24.214Z,15.81
2019-02-04T07:32:53.559Z,16.00
2019-02-04T07:35:22.299Z,16.03
2019-02-04T07:37:51.222Z,15.90
2019-02-04T07:40:31.454Z,15.99
2019-02-04T07:43:00.212Z,15.35
2019-02-04T07:45:29.228Z,15.62
2019-02-04T07:47:58.055Z,15.54
2019-02-04T07:50:26.696Z,15.85
2019-02-04T07:52:55.326Z,16.11
2019-02-04T07:55:24.058Z,16.24
2019-02-04T07:57:52.906Z,16.34
2019-02-04T08:00:30.013Z,16.35
2019-02-04T08:02:59.028Z,16.77
2019-02-04T08:05:27.762Z,16.92
2019-02-04T08:07:56.424Z,16.89
2019-02-04T08:10:25.064Z,16.64
2019-02-04T08:13:01.030Z,16.76
2019-02-04T08:15:32.788Z,17.50
2019-02-04T08:18:01.509Z,17.47
2019-02-04T08:20:30.225Z,17.16
2019-02-04T08:22:58.905Z,17.25
2019-02-04T08:25:27.557Z,17.58
2019-02-04T08:27:56.721Z,17.60
2019-02-04T08:30:33.845Z,17.97
2019-02-04T08:33:02.768Z,18.20
2019-02-04T08:35:34.529Z,18.52
2019-02-04T08:38:03.370Z,18.33
2019-02-04T08:40:32.223Z,18.37
2019-02-04T08:43:01.059Z,18.47
2019-02-04T08:45:33.120Z,18.76
2019-02-04T08:48:01.945Z,19.15
2019-02-04T08:50:31.121Z,19.58
2019-02-04T08:52:59.805Z,20.49
2019-02-04T08:55:28.534Z,20.26
2019-02-04T08:57:57.446Z,20.24
2019-02-04T09:00:27.110Z,20.54
2019-02-04T09:02:56.409Z,21.13
2019-02-04T09:05:28.840Z,21.05
2019-02-04T09:07:57.527Z,20.55
2019-02-04T09:10:30.411Z,21.20
2019-02-04T09:12:59.195Z,21.11
2019-02-04T09:15:28.059Z,21.30
2019-02-04T09:17:59.784Z,21.57
2019-02-04T09:20:28.660Z,21.24
2019-02-04T09:23:06.052Z,21.33
2019-02-04T09:25:35.329Z,21.64
2019-02-04T09:28:04.042Z,22.23
2019-02-04T09:30:32.741Z,22.35
2019-02-04T09:33:01.514Z,22.69
2019-02-04T09:35:35.673Z,23.38
2019-02-04T09:38:04.465Z,23.29
2019-02-04T09:40:46.170Z,23.59
2019-02-04T09:43:14.795Z,25.21
2019-02-04T09:45:43.515Z,26.27
2019-02-04T09:48:15.544Z,26.43
2019-02-04T09:50:47.189Z,26.09
2019-02-04T09:53:15.918Z,26.69
2019-02-04T09:55:44.731Z,26.10
2019-02-04T09:58:13.322Z,25.86
2019-02-04T10:00:42.020Z,25.48
2019-02-04T10:03:10.713Z,25.91
2019-02-04T10:05:39.437Z,25.18
2019-02-04T10:08:08.492Z,24.44
2019-02-04T10:10:40.073Z,23.99
2019-02-04T10:13:08.774Z,24.02
2019-02-04T10:15:45.574Z,23.72
2019-02-04T10:18:13.264Z,23.57
2019-02-04T10:20:41.926Z,22.29
2019-02-04T10:23:10.825Z,22.01
2019-02-04T10:25:41.777Z,21.90
2019-02-04T10:28:11.825Z,21.90
2019-02-04T10:30:40.852Z,22.08
2019-02-04T10:33:09.719Z,21.73
2019-02-04T10:35:38.491Z,20.77
2019-02-04T10:38:07.451Z,20.49
2019-02-04T10:40:36.313Z,20.57
2019-02-04T10:43:05.132Z,19.81
2019-02-04T10:45:33.955Z,19.51
2019-02-04T10:48:02.714Z,19.29
2019-02-04T10:50:46.334Z,19.29
2019-02-04T10:53:11.561Z,19.58
2019-02-04T10:55:40.485Z,19.78
2019-02-04T10:58:11.321Z,19.43
2019-02-04T11:00:40.529Z,19.55
2019-02-04T11:03:09.487Z,19.13
2019-02-04T11:05:40.735Z,19.01
2019-02-04T11:08:11.432Z,18.95
2019-02-04T11:10:40.927Z,18.86
2019-02-04T11:13:14.668Z,19.17
2019-02-04T11:15:43.893Z,19.10
2019-02-04T11:18:13.447Z,19.18
2019-02-04T11:20:42.249Z,19.44
2019-02-04T11:23:11.099Z,19.55
2019-02-04T11:25:40.260Z,19.49
2019-02-04T11:28:10.050Z,19.44
2019-02-04T11:30:50.821Z,19.66
2019-02-04T11:33:19.936Z,19.48
2019-02-04T11:35:48.617Z,19.48
2019-02-04T11:38:17.438Z,19.09
2019-02-04T11:40:47.698Z,19.09
2019-02-04T11:43:17.140Z,19.22
2019-02-04T11:45:46.042Z,18.63
2019-02-04T11:48:16.253Z,18.94
2019-02-04T11:50:44.970Z,19.32
2019-02-04T11:53:13.733Z,19.46
2019-02-04T11:55:42.481Z,19.25
2019-02-04T11:58:11.195Z,19.18
2019-02-04T12:00:40.082Z,18.42
2019-02-04T12:03:11.799Z,18.42
2019-02-04T12:05:40.657Z,18.33
2019-02-04T12:08:10.937Z,18.14
2019-02-04T12:10:54.416Z,18.00
2019-02-04T12:13:23.207Z,17.79
2019-02-04T12:15:52.572Z,17.66
2019-02-04T12:18:21.336Z,17.56
2019-02-04T12:20:50.136Z,17.49
2019-02-04T12:23:19.446Z,17.50
2019-02-04T12:25:48.193Z,17.50
2019-02-04T12:28:22.420Z,17.61
2019-02-04T12:30:51.099Z,17.35
2019-02-04T12:33:19.878Z,17.41
2019-02-04T12:35:48.659Z,17.77
2019-02-04T12:38:17.640Z,17.69
2019-02-04T12:40:46.308Z,17.87
2019-02-04T12:43:15.064Z,18.15
2019-02-04T12:45:45.092Z,18.46
2019-02-04T12:48:13.974Z,18.66
2019-02-04T12:50:45.657Z,19.21
2019-02-04T12:53:14.727Z,19.21
2019-02-04T12:55:43.326Z,19.04
2019-02-04T12:58:12.122Z,19.09
2019-02-04T13:00:40.865Z,18.57
2019-02-04T13:03:09.581Z,18.57
2019-02-04T13:05:49.793Z,18.46
2019-02-04T13:08:18.527Z,18.55
2019-02-04T13:10:47.298Z,18.55
2019-02-04T13:13:18.083Z,18.91
2019-02-04T13:15:46.770Z,19.02
2019-02-04T13:18:15.482Z,19.26
2019-02-04T13:20:44.650Z,19.30
2019-02-04T13:23:13.787Z,19.30
2019-02-04T13:25:42.512Z,19.30
2019-02-04T13:28:13.512Z,19.31
2019-02-04T13:30:42.410Z,19.18
2019-02-04T13:33:11.161Z,19.18
2019-02-04T13:35:40.366Z,19.01
2019-02-04T13:38:11.147Z,19.01
2019-02-04T13:40:44.238Z,18.72
2019-02-04T13:43:11.585Z,19.03
2019-02-04T13:45:40.220Z,19.12
2019-02-04T13:48:09.051Z,19.12
2019-02-04T13:50:37.795Z,19.34
2019-02-04T13:53:06.793Z,19.45
2019-02-04T13:55:37.368Z,19.69
2019-02-04T13:58:06.750Z,20.20
2019-02-04T14:00:38.888Z,20.77
2019-02-04T14:03:08.757Z,21.58
2019-02-04T14:05:37.535Z,22.71
2019-02-04T14:08:06.627Z,23.20
2019-02-04T14:10:40.524Z,23.39
2019-02-04T14:13:09.268Z,23.15
2019-02-04T14:15:38.903Z,22.62
2019-02-04T14:18:08.432Z,22.34
2019-02-04T14:20:37.109Z,21.98
2019-02-04T14:23:05.805Z,21.41
2019-02-04T14:25:34.530Z,20.87
2019-02-04T14:28:03.963Z,20.50
2019-02-04T14:30:41.450Z,20.01
2019-02-04T14:33:12.976Z,19.62
2019-02-04T14:35:41.597Z,18.90
2019-02-04T14:38:10.779Z,18.66
2019-02-04T14:40:39.452Z,18.26
2019-02-04T14:43:17.462Z,18.26
2019-02-04T14:46:04.025Z,18.03
2019-02-04T14:48:47.579Z,18.22
2019-02-04T14:51:28.170Z,18.22
2019-02-04T14:54:14.757Z,18.13
2019-02-04T14:56:52.243Z,17.76
2019-02-04T14:59:24.001Z,17.45
2019-02-04T15:02:10.730Z,17.23
2019-02-04T15:04:53.675Z,16.98
2019-02-04T15:07:34.199Z,16.61
2019-02-04T15:10:18.023Z,16.41
2019-02-04T15:13:10.973Z,16.09
2019-02-04T15:15:51.147Z,15.74
2019-02-04T15:18:34.864Z,15.35
2019-02-04T15:21:09.933Z,14.93
2019-02-04T15:23:50.556Z,14.62
2019-02-04T15:26:37.456Z,14.43
2019-02-04T15:29:18.027Z,14.23
2019-02-04T15:31:59.164Z,13.87
2019-02-04T15:34:45.791Z,13.60
2019-02-04T15:37:32.496Z,13.22
2019-02-04T15:40:04.089Z,12.83
2019-02-04T15:42:50.970Z,12.53
2019-02-04T15:45:56.355Z,12.40
2019-02-04T15:48:27.849Z,12.17
2019-02-04T15:51:17.565Z,11.89
2019-02-04T15:53:46.319Z,11.64
2019-02-04T15:56:14.947Z,11.42
2019-02-04T15:58:44.114Z,11.17
2019-02-04T16:01:12.752Z,11.09
2019-02-04T16:03:41.413Z,10.99
2019-02-04T16:06:09.990Z,10.93
2019-02-04T16:08:38.792Z,10.89
2019-02-04T16:11:07.750Z,10.79
2019-02-04T16:13:36.402Z,10.68
2019-02-04T16:16:05.253Z,10.63
2019-02-04T16:18:33.973Z,10.68
2019-02-04T16:21:02.739Z,10.74
2019-02-04T16:23:34.341Z,10.75
2019-02-04T16:26:03.301Z,10.71
2019-02-04T16:28:39.314Z,10.79
2019-02-04T16:31:08.018Z,10.75
2019-02-04T16:33:39.899Z,10.56
2019-02-04T16:36:08.548Z,10.41
2019-02-04T16:38:37.870Z,10.25
2019-02-04T16:41:09.478Z,10.50
2019-02-04T16:43:38.092Z,10.76
2019-02-04T16:46:06.835Z,11.04
2019-02-04T16:48:38.435Z,11.08
2019-02-04T16:51:11.868Z,10.90
2019-02-04T16:53:40.499Z,10.88
2019-02-04T16:56:09.346Z,11.00
2019-02-04T16:58:37.962Z,11.14
2019-02-04T17:01:07.002Z,11.02
2019-02-04T17:03:35.639Z,10.77
2019-02-04T17:06:04.518Z,10.91
2019-02-04T17:08:33.455Z,10.82
2019-02-04T17:11:02.213Z,10.90
2019-02-04T17:13:34.235Z,10.71
2019-02-04T17:16:05.538Z,10.69
2019-02-04T17:18:34.183Z,10.74
2019-02-04T17:21:02.937Z,10.87
2019-02-04T17:23:31.568Z,10.75
2019-02-04T17:26:00.256Z,10.81
2019-02-04T17:28:28.890Z,10.93
2019-02-04T17:30:57.580Z,10.81
2019-02-04T17:33:26.265Z,10.72
2019-02-04T17:35:55.478Z,10.66
2019-02-04T17:38:24.447Z,10.65
2019-02-04T17:40:53.134Z,10.57
2019-02-04T17:43:21.816Z,10.54
2019-02-04T17:45:53.278Z,10.48
2019-02-04T17:48:21.971Z,10.51
2019-02-04T17:50:50.656Z,10.63
2019-02-04T17:53:19.464Z,10.54
2019-02-04T17:55:48.272Z,10.29
2019-02-04T17:58:16.923Z,10.09
2019-02-04T18:00:47.346Z,10.04
2019-02-04T18:03:15.998Z,10.00
2019-02-04T18:05:44.683Z,9.86
2019-02-04T18:08:13.589Z,9.64
2019-02-04T18:10:42.810Z,9.68
2019-02-04T18:13:11.465Z,9.68
2019-02-04T18:15:40.036Z,9.56
2019-02-04T18:18:09.128Z,9.37
2019-02-04T18:20:37.845Z,9.10
2019-02-04T18:23:06.865Z,9.22
2019-02-04T18:25:35.542Z,9.06
2019-02-04T18:28:04.760Z,8.84
2019-02-04T18:30:33.761Z,8.86
2019-02-04T18:33:02.458Z,8.92
2019-02-04T18:35:37.864Z,8.96
2019-02-04T18:38:06.644Z,8.94
2019-02-04T18:40:35.283Z,8.98
2019-02-04T18:43:10.133Z,9.02
2019-02-04T18:45:38.840Z,8.78
2019-02-04T18:48:08.226Z,8.85
2019-02-04T18:50:37.196Z,8.72
2019-02-04T18:53:06.117Z,8.64
2019-02-04T18:55:38.035Z,8.72
2019-02-04T18:58:06.721Z,8.74
2019-02-04T19:00:35.466Z,8.63
2019-02-04T19:03:16.864Z,8.64
2019-02-04T19:05:37.010Z,8.19
2019-02-04T19:08:06.644Z,8.39
2019-02-04T19:10:35.314Z,8.20
2019-02-04T19:13:04.171Z,8.22
2019-02-04T19:15:35.618Z,8.09
2019-02-04T19:18:07.603Z,8.15
2019-02-04T19:20:36.354Z,7.98
2019-02-04T19:23:08.313Z,7.78
2019-02-04T19:25:36.938Z,7.64
2019-02-04T19:28:07.348Z,7.90
2019-02-04T19:30:45.864Z,8.19
2019-02-04T19:33:17.199Z,8.28
2019-02-04T19:35:45.789Z,8.34
2019-02-04T19:38:17.154Z,8.37
2019-02-04T19:40:45.800Z,8.24
2019-02-04T19:43:14.826Z,8.22
2019-02-04T19:45:48.999Z,8.13
2019-02-04T19:48:17.576Z,8.08
2019-02-04T19:50:46.398Z,8.07
2019-02-04T19:53:15.046Z,8.10
2019-02-04T19:55:43.696Z,8.30
2019-02-04T19:58:12.774Z,8.32
2019-02-04T20:00:41.404Z,8.30
2019-02-04T20:03:10.081Z,8.26
2019-02-04T20:05:38.774Z,8.18
2019-02-04T20:08:07.724Z,8.14
2019-02-04T20:10:41.033Z,8.11
2019-02-04T20:13:09.938Z,8.10
2019-02-04T20:15:38.628Z,8.07
2019-02-04T20:18:10.404Z,8.02
2019-02-04T20:20:39.054Z,7.86
2019-02-04T20:23:07.746Z,7.75
2019-02-04T20:25:36.792Z,7.69
2019-02-04T20:28:07.601Z,7.64
2019-02-04T20:30:45.936Z,7.62
2019-02-04T20:33:10.644Z,7.60
2019-02-04T20:35:39.606Z,7.68
2019-02-04T20:38:09.144Z,7.72
2019-02-04T20:40:37.775Z,7.71
2019-02-04T20:43:07.872Z,7.69
2019-02-04T20:45:36.517Z,7.75
2019-02-04T20:48:07.394Z,7.82
2019-02-04T20:50:38.440Z,7.83
2019-02-04T20:53:07.230Z,7.83
2019-02-04T20:55:35.881Z,7.79
2019-02-04T20:58:05.242Z,7.72
2019-02-04T21:00:34.087Z,7.67
2019-02-04T21:03:02.723Z,7.64
2019-02-04T21:05:31.365Z,7.64
2019-02-04T21:07:59.999Z,7.65
2019-02-04T21:10:31.958Z,7.62
2019-02-04T21:13:00.595Z,7.63
2019-02-04T21:15:29.251Z,7.62
2019-02-04T21:17:57.936Z,7.64
2019-02-04T21:20:27.979Z,7.64
2019-02-04T21:22:56.831Z,7.69
2019-02-04T21:25:25.574Z,7.74
2019-02-04T21:27:54.381Z,7.76
2019-02-04T21:30:35.508Z,7.84
2019-02-04T21:33:04.343Z,7.89
2019-02-04T21:35:33.022Z,8.07
2019-02-04T21:38:01.663Z,8.17
2019-02-04T21:40:30.384Z,8.19
2019-02-04T21:42:59.154Z,8.25
2019-02-04T21:45:27.991Z,8.32
2019-02-04T21:47:56.738Z,8.26
2019-02-04T21:50:27.142Z,8.27
2019-02-04T21:52:58.530Z,8.29
2019-02-04T21:55:27.453Z,8.39
2019-02-04T21:57:59.038Z,8.36
2019-02-04T22:00:33.056Z,8.16
2019-02-04T22:03:01.825Z,8.35
2019-02-04T22:05:32.561Z,8.46
2019-02-04T22:08:01.587Z,8.50
2019-02-04T22:10:31.180Z,8.42
2019-02-04T22:13:00.219Z,8.40
2019-02-04T22:15:28.991Z,8.58
2019-02-04T22:17:57.697Z,8.62
2019-02-04T22:20:26.323Z,8.70
2019-02-04T22:22:57.837Z,8.84
2019-02-04T22:25:26.623Z,8.86
2019-02-04T22:27:55.255Z,8.99
2019-02-04T22:30:25.714Z,9.09
2019-02-04T22:32:54.435Z,9.13
2019-02-04T22:35:23.285Z,9.13
2019-02-04T22:37:51.967Z,9.09
2019-02-04T22:40:25.459Z,9.09
2019-02-04T22:42:54.144Z,9.04
2019-02-04T22:45:23.128Z,9.00
2019-02-04T22:47:51.765Z,9.02
2019-02-04T22:50:27.676Z,9.02
2019-02-04T22:52:56.684Z,8.97
2019-02-04T22:55:31.974Z,8.96
2019-02-04T22:57:55.928Z,8.99
2019-02-04T23:00:44.192Z,8.94
2019-02-04T23:03:13.979Z,9.00
2019-02-04T23:05:42.622Z,9.17
2019-02-04T23:08:11.258Z,9.12
2019-02-04T23:10:39.962Z,9.08
2019-02-04T23:13:08.590Z,9.15
2019-02-04T23:15:37.263Z,9.32
2019-02-04T23:18:06.610Z,9.49
2019-02-04T23:20:35.297Z,9.51
2019-02-04T23:23:05.204Z,9.51
2019-02-04T23:25:43.012Z,9.53
2019-02-04T23:28:06.929Z,9.53
2019-02-04T23:30:35.624Z,9.57
2019-02-04T23:33:05.433Z,9.61
2019-02-04T23:35:34.125Z,9.66
2019-02-04T23:38:02.938Z,9.65
2019-02-04T23:40:31.608Z,9.66
2019-02-04T23:43:00.264Z,9.67
2019-02-04T23:45:28.938Z,9.64
2019-02-04T23:47:57.865Z,9.58
2019-02-04T23:50:26.532Z,9.56
2019-02-04T23:52:55.164Z,9.55
2019-02-04T23:55:26.707Z,9.60
2019-02-04T23:57:55.343Z,9.67
